Dresden, Missouri
Current Conditions -  °F | °C
As of 2:53 AM on Thursday 23 Oct 2014 (Local Time) from KDMO Reporting Station
Scattered Clouds Scattered Clouds  
Wind Chill: 52°   Ceiling: Unl
Heat Index: 52°   Visibility: 10mi
Dew Point: 47°   Wind: 10mph
Humidity: 83%   Direction: 180°S
Pressure: 30.16"   Gusts: NA
Location:  38.6763°N, 93.2612°W
Report Text: KDMO 230753Z AUTO 18009KT 10SM SCT040 11/08 A3016 RMK AO2 SLP209 T01110083
Loading
Personal Weather Stations






























Interactive Weather Map
Tropical Storm Tracking
New forecast layout! Learn more

10-Day Weather Forecast

Advertisements
Track Severe Weather on mobile